Time;durP1;ratioP1;P1;durP2;ratioP2;P2;SDS_P1;SDS_P2;PMS_P1;PMS_P2;Temp;Humidity;BMP_temperature;BMP_pressure;BME280_temperature;BME280_humidity;BME280_pressure;Samples;Min_cycle;Max_cycle;Signal;HPM_P1;HPM_P2
2023/08/22 00:01:25;;;;;;;25.33;23.73;;;24.30;99.90;;;;;;4951429;28;20826;-72
2023/08/22 00:03:56;;;;;;;27.03;25.53;;;24.30;99.90;;;;;;4951691;28;20463;-72
2023/08/22 00:06:23;;;;;;;26.23;24.63;;;24.30;99.90;;;;;;4951699;28;20571;-72
2023/08/22 00:08:51;;;;;;;25.50;23.80;;;24.30;99.90;;;;;;4951638;28;20496;-72
2023/08/22 00:11:18;;;;;;;26.07;24.47;;;24.30;99.90;;;;;;4944619;28;20799;-72
2023/08/22 00:13:45;;;;;;;24.50;22.90;;;24.20;99.90;;;;;;4932501;29;20545;-72
2023/08/22 00:16:12;;;;;;;24.57;22.90;;;24.30;99.90;;;;;;4951910;29;20467;-72
2023/08/22 00:18:39;;;;;;;23.87;22.27;;;24.30;99.90;;;;;;4945502;28;20449;-72
2023/08/22 00:21:05;;;;;;;26.67;24.87;;;24.40;99.90;;;;;;4933240;29;20917;-72
2023/08/22 00:23:32;;;;;;;27.40;25.60;;;24.30;99.90;;;;;;4932820;29;20442;-72
2023/08/22 00:26:00;;;;;;;26.00;24.10;;;24.30;99.90;;;;;;4932942;29;20450;-72
2023/08/22 00:28:27;;;;;;;26.77;24.93;;;24.30;99.90;;;;;;4939081;29;20974;-71
2023/08/22 00:30:55;;;;;;;27.60;25.60;;;24.20;99.90;;;;;;4952241;28;20451;-71
2023/08/22 00:33:22;;;;;;;27.43;25.43;;;24.10;99.90;;;;;;4952357;28;20456;-73
2023/08/22 00:35:49;;;;;;;28.00;26.00;;;24.10;99.90;;;;;;4951971;28;20452;-73
2023/08/22 00:38:16;;;;;;;28.00;25.90;;;24.10;99.90;;;;;;4951965;28;20476;-73
2023/08/22 00:40:43;;;;;;;26.77;24.93;;;24.10;99.90;;;;;;4951892;28;20449;-73
2023/08/22 00:43:11;;;;;;;26.10;24.40;;;24.10;99.90;;;;;;4952060;28;20457;-73
2023/08/22 00:45:38;;;;;;;26.37;24.57;;;24.10;99.90;;;;;;4954086;28;20445;-72
2023/08/22 00:48:06;;;;;;;26.27;24.47;;;24.10;99.90;;;;;;4956030;28;20858;-73
2023/08/22 00:50:33;;;;;;;28.33;26.30;;;24.10;99.90;;;;;;4955632;28;20958;-72
2023/08/22 00:53:00;;;;;;;28.07;26.37;;;24.10;99.90;;;;;;4955570;28;20457;-73
2023/08/22 00:55:27;;;;;;;27.43;25.87;;;24.10;99.90;;;;;;4955406;28;20467;-72
2023/08/22 00:57:54;;;;;;;26.20;24.70;;;24.10;99.90;;;;;;4955564;28;20448;-72
2023/08/22 01:00:22;;;;;;;26.47;24.80;;;24.10;99.90;;;;;;4955214;28;20475;-72
2023/08/22 01:02:49;;;;;;;27.37;25.77;;;24.00;99.90;;;;;;4955538;28;20461;-72
2023/08/22 01:05:16;;;;;;;26.97;25.37;;;24.00;99.90;;;;;;4955166;28;20997;-72
2023/08/22 01:07:53;;;;;;;27.40;25.40;;;23.90;99.90;;;;;;4955065;28;21005;-72
2023/08/22 01:10:27;;;;;;;28.10;26.20;;;24.00;99.90;;;;;;4955467;28;20448;-72
2023/08/22 01:12:59;;;;;;;28.00;25.97;;;23.90;99.90;;;;;;4955206;28;20455;-72
2023/08/22 01:15:28;;;;;;;26.53;25.03;;;23.80;99.90;;;;;;4954954;28;20448;-72
2023/08/22 01:17:57;;;;;;;26.33;24.50;;;23.80;99.90;;;;;;4955162;28;20444;-72
2023/08/22 01:20:26;;;;;;;25.57;23.97;;;23.80;99.90;;;;;;4954969;28;20448;-72
2023/08/22 01:22:54;;;;;;;27.13;25.53;;;23.90;99.90;;;;;;4955123;28;20457;-72
2023/08/22 01:25:21;;;;;;;28.67;26.70;;;23.80;99.90;;;;;;4955154;28;20452;-72
2023/08/22 01:27:58;;;;;;;28.50;26.37;;;23.80;99.90;;;;;;4954896;28;20484;-72
2023/08/22 01:30:36;;;;;;;27.00;25.40;;;23.80;99.90;;;;;;4954876;28;20491;-72
2023/08/22 01:33:07;;;;;;;26.77;25.03;;;23.80;99.90;;;;;;4954617;28;20460;-72
2023/08/22 01:35:36;;;;;;;27.77;26.07;;;23.70;99.90;;;;;;4954615;28;20452;-72
2023/08/22 01:38:05;;;;;;;28.13;26.27;;;23.70;99.90;;;;;;4946928;28;20480;-72
2023/08/22 01:43:54;;;;;;;26.00;24.00;;;23.70;99.90;;;;;;4937169;29;20457;-72
2023/08/22 01:46:20;;;;;;;25.33;23.63;;;23.70;99.90;;;;;;4943138;29;20465;-72
2023/08/22 01:48:47;;;;;;;26.87;25.20;;;23.70;99.90;;;;;;4943530;28;20454;-72
2023/08/22 01:51:21;;;;;;;25.13;23.43;;;23.70;99.90;;;;;;4944236;29;20461;-72
2023/08/22 01:53:49;;;;;;;25.47;24.07;;;23.70;99.90;;;;;;4941190;29;20464;-72
2023/08/22 01:56:16;;;;;;;25.10;23.70;;;23.70;99.90;;;;;;4953632;28;20460;-72
2023/08/22 01:58:49;;;;;;;26.50;24.80;;;23.70;99.90;;;;;;4950738;28;20465;-72
2023/08/22 02:01:37;;;;;;;27.30;25.53;;;23.70;99.90;;;;;;4938093;28;21428;-72
2023/08/22 02:04:06;;;;;;;29.30;27.20;;;23.70;99.90;;;;;;4954134;28;20448;-72
2023/08/22 02:06:33;;;;;;;26.13;24.70;;;23.60;99.90;;;;;;4940500;28;20460;-73
2023/08/22 02:21:45;;;;;;;25.73;24.40;;;23.50;99.90;;;;;;5791807;23;20522;-77
2023/08/22 02:24:12;;;;;;;29.10;27.37;;;23.50;99.90;;;;;;4951142;28;20476;-79
2023/08/22 02:26:41;;;;;;;27.33;25.80;;;23.40;99.90;;;;;;4953849;28;20452;-79
2023/08/22 02:29:08;;;;;;;25.43;23.93;;;23.40;99.90;;;;;;4952872;28;20479;-80
2023/08/22 02:31:34;;;;;;;27.63;25.80;;;23.40;99.90;;;;;;4951517;28;20467;-76
2023/08/22 02:34:01;;;;;;;27.93;26.20;;;23.40;99.90;;;;;;4952915;28;20449;-76
2023/08/22 02:36:28;;;;;;;28.37;26.27;;;23.30;99.90;;;;;;4953054;28;20460;-75
2023/08/22 02:38:56;;;;;;;27.93;26.23;;;23.20;99.90;;;;;;4953127;28;20451;-76
2023/08/22 02:41:22;;;;;;;28.60;26.70;;;23.20;99.90;;;;;;4953287;28;20448;-76
2023/08/22 02:43:51;;;;;;;28.83;27.13;;;23.20;99.90;;;;;;4953073;28;20459;-76
2023/08/22 02:46:17;;;;;;;28.87;27.00;;;23.10;99.90;;;;;;4953394;28;20554;-76
2023/08/22 02:48:44;;;;;;;27.73;26.00;;;23.00;99.90;;;;;;4953243;28;20485;-75
2023/08/22 02:51:11;;;;;;;27.90;26.30;;;23.10;99.90;;;;;;4953596;28;20463;-76
2023/08/22 02:53:37;;;;;;;28.43;26.67;;;23.10;99.90;;;;;;4953244;28;20444;-76
2023/08/22 02:56:06;;;;;;;25.57;23.97;;;23.10;99.90;;;;;;4953199;28;20495;-76
2023/08/22 02:58:32;;;;;;;26.77;25.00;;;23.00;99.90;;;;;;4953350;28;20544;-76
2023/08/22 03:00:59;;;;;;;27.87;26.17;;;23.00;99.90;;;;;;4953243;28;20445;-77
2023/08/22 03:03:26;;;;;;;27.83;26.30;;;23.00;99.90;;;;;;4953364;28;20479;-76
2023/08/22 03:05:53;;;;;;;28.27;26.67;;;23.00;99.90;;;;;;4953095;28;20479;-76
2023/08/22 03:08:19;;;;;;;27.90;26.07;;;22.90;99.90;;;;;;4951901;28;20493;-74
2023/08/22 03:10:46;;;;;;;27.43;25.90;;;23.00;99.90;;;;;;4952793;28;20975;-75
2023/08/22 03:13:14;;;;;;;30.40;28.23;;;22.90;99.90;;;;;;4952882;28;20813;-76
2023/08/22 03:15:41;;;;;;;27.70;26.13;;;22.90;99.90;;;;;;4953121;28;20479;-76
2023/08/22 03:18:09;;;;;;;27.77;26.20;;;22.80;99.90;;;;;;4952874;28;20445;-76
2023/08/22 03:20:35;;;;;;;26.97;25.13;;;22.80;99.90;;;;;;4946102;28;20466;-76
2023/08/22 03:23:04;;;;;;;28.10;26.33;;;22.70;99.90;;;;;;4933452;29;20936;-76
2023/08/22 03:25:31;;;;;;;28.50;26.60;;;22.70;99.90;;;;;;4933629;29;21089;-75
2023/08/22 03:27:58;;;;;;;28.40;26.60;;;22.70;99.90;;;;;;4933554;29;20500;-76
2023/08/22 03:30:26;;;;;;;26.53;24.70;;;22.70;99.90;;;;;;4933897;29;20449;-75
2023/08/22 03:32:53;;;;;;;26.50;24.90;;;22.70;99.90;;;;;;4933710;29;20827;-75
2023/08/22 03:35:19;;;;;;;26.73;24.93;;;22.80;99.90;;;;;;4933525;29;20932;-75
2023/08/22 03:37:46;;;;;;;25.93;24.43;;;22.70;99.90;;;;;;4933473;29;20457;-76
2023/08/22 03:40:13;;;;;;;27.20;25.60;;;22.70;99.90;;;;;;4933456;29;20476;-75
2023/08/22 03:42:39;;;;;;;27.07;25.53;;;22.70;99.90;;;;;;4933612;29;20450;-75
2023/08/22 03:45:07;;;;;;;27.03;25.50;;;22.70;99.90;;;;;;4926345;29;20944;-75
2023/08/22 03:47:35;;;;;;;30.30;27.97;;;22.70;99.90;;;;;;4925570;29;20840;-75
2023/08/22 03:50:02;;;;;;;27.70;26.17;;;22.60;99.90;;;;;;4914435;29;20450;-76
2023/08/22 03:52:29;;;;;;;26.60;24.60;;;22.70;99.90;;;;;;4924827;29;20453;-75
2023/08/22 03:54:55;;;;;;;27.03;25.33;;;22.60;99.90;;;;;;4933377;29;20457;-75
2023/08/22 03:57:22;;;;;;;28.17;26.30;;;22.60;99.90;;;;;;4933280;29;20445;-75
2023/08/22 03:59:49;;;;;;;27.57;25.77;;;22.60;99.90;;;;;;4932672;29;20450;-76
2023/08/22 04:02:16;;;;;;;28.40;26.70;;;22.60;99.90;;;;;;4914187;29;20454;-79
2023/08/22 04:04:44;;;;;;;28.67;26.87;;;22.60;99.90;;;;;;4914260;29;20941;-79
2023/08/22 04:07:10;;;;;;;29.73;27.87;;;22.60;99.90;;;;;;4914139;29;20454;-80
2023/08/22 04:09:37;;;;;;;28.00;26.40;;;22.50;99.90;;;;;;4914317;29;20454;-80
2023/08/22 04:12:04;;;;;;;31.30;28.97;;;22.50;99.90;;;;;;4914102;29;20485;-81
2023/08/22 04:14:31;;;;;;;30.40;28.70;;;22.50;99.90;;;;;;4914130;29;20450;-80
2023/08/22 04:16:57;;;;;;;28.60;27.07;;;22.50;99.90;;;;;;4914095;29;20454;-81
2023/08/22 04:19:24;;;;;;;29.37;27.67;;;22.50;99.90;;;;;;4914592;29;20450;-82
2023/08/22 04:21:52;;;;;;;28.97;27.00;;;22.50;99.90;;;;;;4917919;29;20529;-81
2023/08/22 04:24:19;;;;;;;31.93;30.03;;;22.50;99.90;;;;;;4917778;29;20481;-78
2023/08/22 04:26:46;;;;;;;30.50;28.60;;;22.50;99.90;;;;;;4917847;29;20446;-78
2023/08/22 04:29:13;;;;;;;29.40;27.70;;;22.50;99.90;;;;;;4917849;29;20493;-79
2023/08/22 04:31:39;;;;;;;30.63;28.80;;;22.40;99.90;;;;;;4917876;29;20454;-78
2023/08/22 04:34:07;;;;;;;30.87;29.00;;;22.50;99.90;;;;;;4917755;29;20466;-79
2023/08/22 04:36:33;;;;;;;28.50;26.90;;;22.40;99.90;;;;;;4917581;29;20470;-78
2023/08/22 04:39:02;;;;;;;30.27;28.23;;;22.40;99.90;;;;;;4917568;29;20438;-79
2023/08/22 04:41:29;;;;;;;26.97;25.50;;;22.40;99.90;;;;;;4917556;29;20462;-78
2023/08/22 04:43:56;;;;;;;29.37;27.40;;;22.40;99.90;;;;;;4917730;29;20450;-79
2023/08/22 04:46:22;;;;;;;30.80;29.00;;;22.50;99.90;;;;;;4917734;29;20502;-78
2023/08/22 04:48:49;;;;;;;31.07;28.83;;;22.50;99.90;;;;;;4917389;29;20501;-78
2023/08/22 04:51:16;;;;;;;30.47;28.57;;;22.50;99.90;;;;;;4917371;29;20442;-78
2023/08/22 04:53:45;;;;;;;28.90;27.20;;;22.50;99.90;;;;;;4917763;29;20450;-77
2023/08/22 04:56:13;;;;;;;30.70;28.80;;;22.50;99.90;;;;;;4917461;29;20521;-76
2023/08/22 04:58:41;;;;;;;29.67;27.77;;;22.60;99.90;;;;;;4917476;29;20446;-75
2023/08/22 05:01:07;;;;;;;29.13;27.40;;;22.60;99.90;;;;;;4920836;29;20470;-77
2023/08/22 05:03:34;;;;;;;29.23;27.40;;;22.60;99.90;;;;;;4928551;29;20542;-78
2023/08/22 05:06:01;;;;;;;29.73;27.80;;;22.60;99.90;;;;;;4925583;29;20458;-81
2023/08/22 05:08:27;;;;;;;29.87;28.17;;;22.60;99.90;;;;;;4917016;29;20497;-77
2023/08/22 05:10:54;;;;;;;29.90;28.10;;;22.60;99.90;;;;;;4922821;29;20457;-79
2023/08/22 05:13:22;;;;;;;29.43;27.67;;;22.70;99.90;;;;;;4925578;29;20450;-77
2023/08/22 05:15:49;;;;;;;29.17;27.20;;;22.70;99.90;;;;;;4916854;29;20458;-78
2023/08/22 05:18:16;;;;;;;28.70;26.67;;;22.70;99.90;;;;;;4920110;29;20451;-76
2023/08/22 05:20:42;;;;;;;29.73;27.83;;;22.80;99.90;;;;;;4926206;29;20477;-78
2023/08/22 05:23:09;;;;;;;28.13;26.03;;;22.90;99.90;;;;;;4927002;29;20498;-77
2023/08/22 05:25:36;;;;;;;28.73;26.93;;;23.20;99.90;;;;;;4925023;29;20462;-77
2023/08/22 05:28:03;;;;;;;26.43;24.83;;;23.50;99.90;;;;;;4924568;29;20867;-78
2023/08/22 05:30:31;;;;;;;26.40;24.93;;;23.80;99.90;;;;;;4918690;29;20455;-76
2023/08/22 05:32:57;;;;;;;25.77;23.87;;;24.00;99.90;;;;;;4926120;29;20461;-76
2023/08/22 05:35:24;;;;;;;27.70;26.10;;;24.20;99.90;;;;;;4926305;29;20830;-76
2023/08/22 05:37:51;;;;;;;28.60;26.27;;;24.50;99.90;;;;;;4923147;29;20453;-79
2023/08/22 05:40:17;;;;;;;28.40;26.70;;;24.70;99.90;;;;;;4919439;29;20462;-76
2023/08/22 05:42:44;;;;;;;26.53;24.57;;;24.90;99.90;;;;;;4926772;29;20454;-77
2023/08/22 05:45:11;;;;;;;28.13;26.13;;;25.10;99.90;;;;;;4917893;29;20474;-78
2023/08/22 05:47:39;;;;;;;28.93;26.77;;;25.30;99.90;;;;;;4924208;29;20466;-79
2023/08/22 05:50:07;;;;;;;26.80;25.00;;;25.40;99.90;;;;;;4923503;29;20469;-80
2023/08/22 05:52:33;;;;;;;26.03;24.20;;;25.60;99.90;;;;;;4925980;29;20462;-79
2023/08/22 05:55:00;;;;;;;26.90;25.23;;;25.80;99.90;;;;;;4930662;29;20464;-79
2023/08/22 05:57:28;;;;;;;25.17;23.67;;;26.10;99.90;;;;;;4928173;29;20462;-79
2023/08/22 05:59:55;;;;;;;24.90;22.97;;;26.40;99.90;;;;;;4928524;29;20458;-79
2023/08/22 06:02:21;;;;;;;25.60;24.00;;;26.60;99.90;;;;;;4918934;29;20460;-80
2023/08/22 06:04:49;;;;;;;25.93;23.97;;;26.70;99.90;;;;;;4926867;29;20461;-81
2023/08/22 06:07:16;;;;;;;26.33;24.63;;;26.80;99.90;;;;;;4927317;29;20477;-80
2023/08/22 06:09:43;;;;;;;29.27;26.27;;;26.90;99.90;;;;;;4925078;29;20509;-80
2023/08/22 06:12:11;;;;;;;26.77;24.93;;;27.00;99.90;;;;;;4925966;29;20944;-81
2023/08/22 06:14:38;;;;;;;24.10;22.50;;;27.30;99.90;;;;;;4930487;29;20471;-80
2023/08/22 06:17:05;;;;;;;24.93;23.43;;;27.50;99.90;;;;;;4927757;29;20478;-80
2023/08/22 06:19:32;;;;;;;25.27;23.77;;;27.60;99.90;;;;;;4924362;29;20450;-81
2023/08/22 06:22:00;;;;;;;24.13;22.80;;;27.90;99.90;;;;;;4925985;29;20469;-80
2023/08/22 06:24:26;;;;;;;25.43;23.73;;;28.00;99.90;;;;;;4926144;29;20457;-81
2023/08/22 06:26:53;;;;;;;25.23;23.67;;;28.10;99.90;;;;;;4932157;29;21361;-81
2023/08/22 06:29:20;;;;;;;25.23;23.73;;;28.40;99.90;;;;;;4924023;29;20490;-78
2023/08/22 06:31:47;;;;;;;24.80;23.10;;;28.60;99.90;;;;;;4923239;29;21000;-78
2023/08/22 06:34:17;;;;;;;24.87;23.33;;;28.80;99.90;;;;;;4925358;29;20461;-79
2023/08/22 06:36:44;;;;;;;24.93;23.40;;;28.90;99.90;;;;;;4931557;29;20459;-79
2023/08/22 06:39:12;;;;;;;24.20;22.70;;;28.80;99.90;;;;;;4925536;29;20458;-80
2023/08/22 06:41:39;;;;;;;22.97;21.50;;;28.50;99.90;;;;;;4935771;29;20453;-79
2023/08/22 06:44:09;;;;;;;23.97;22.43;;;28.80;99.90;;;;;;4934531;29;20820;-79
2023/08/22 06:46:36;;;;;;;25.07;23.77;;;29.20;99.90;;;;;;4925374;29;20488;-80
2023/08/22 06:49:04;;;;;;;22.87;21.57;;;29.80;99.90;;;;;;4923710;29;20527;-79
2023/08/22 06:51:30;;;;;;;23.90;22.20;;;30.20;99.90;;;;;;4929720;29;20453;-80
2023/08/22 06:53:57;;;;;;;25.20;23.37;;;30.50;99.90;;;;;;4924525;29;20460;-78
2023/08/22 06:56:26;;;;;;;24.57;22.93;;;30.70;99.90;;;;;;4920066;29;20446;-80
2023/08/22 06:58:53;;;;;;;23.37;21.80;;;31.00;99.90;;;;;;4926051;29;20453;-80
2023/08/22 07:01:20;;;;;;;23.50;22.00;;;31.40;99.90;;;;;;4923791;29;20991;-85
2023/08/22 07:03:46;;;;;;;22.80;21.40;;;31.60;99.90;;;;;;4922692;29;20707;-80
2023/08/22 07:06:13;;;;;;;23.60;21.90;;;31.50;99.90;;;;;;4925706;29;20838;-79
2023/08/22 07:08:40;;;;;;;22.77;21.37;;;31.60;99.90;;;;;;4937260;29;20500;-81
2023/08/22 07:11:06;;;;;;;25.47;23.70;;;31.90;99.30;;;;;;4924910;29;20477;-79
2023/08/22 07:13:36;;;;;;;22.93;21.80;;;31.70;99.70;;;;;;4925607;29;20458;-80
2023/08/22 07:16:03;;;;;;;22.70;21.40;;;31.80;99.20;;;;;;4926493;29;20450;-80
2023/08/22 07:21:52;;;;;;;22.00;20.70;;;31.90;99.30;;;;;;4925733;29;20498;-75
2023/08/22 07:24:18;;;;;;;21.10;20.00;;;32.10;98.50;;;;;;4933000;29;20520;-77
2023/08/22 07:30:10;;;;;;;22.47;20.93;;;32.80;97.40;;;;;;4941866;29;21077;-80
2023/08/22 07:32:36;;;;;;;23.57;22.00;;;33.10;96.90;;;;;;4945638;28;20457;-78
2023/08/22 07:35:03;;;;;;;23.13;21.93;;;33.80;95.40;;;;;;4935334;29;20662;-78
2023/08/22 07:37:30;;;;;;;22.73;21.27;;;34.10;94.40;;;;;;4949839;28;20456;-80
2023/08/22 07:39:57;;;;;;;23.67;22.07;;;34.50;93.90;;;;;;4940872;29;20977;-79
2023/08/22 07:42:23;;;;;;;24.47;22.47;;;34.90;93.30;;;;;;4953545;28;20484;-79
2023/08/22 07:44:50;;;;;;;22.63;21.37;;;35.20;92.20;;;;;;4930053;28;20816;-79
2023/08/22 07:47:18;;;;;;;22.53;21.33;;;35.60;91.40;;;;;;4932753;29;20559;-80
2023/08/22 07:49:45;;;;;;;23.37;22.17;;;36.10;90.00;;;;;;4933223;29;20495;-79
2023/08/22 07:52:11;;;;;;;22.40;21.20;;;36.10;89.80;;;;;;4935236;29;20461;-77
2023/08/22 07:54:38;;;;;;;22.73;21.63;;;36.30;89.70;;;;;;4945860;28;20457;-79
2023/08/22 07:57:05;;;;;;;22.67;21.07;;;36.60;88.00;;;;;;4941435;28;20457;-81
2023/08/22 08:02:55;;;;;;;23.77;22.47;;;37.70;83.90;;;;;;4934046;29;20499;-80
2023/08/22 08:05:22;;;;;;;23.60;22.40;;;38.30;82.20;;;;;;4933921;29;20445;-80
2023/08/22 08:14:48;;;;;;;25.37;23.63;;;38.80;76.80;;;;;;4936188;29;20475;-79
2023/08/22 08:17:45;;;;;;;23.90;22.70;;;38.50;75.90;;;;;;4914258;29;20458;-80
2023/08/22 08:27:17;;;;;;;25.73;24.23;;;38.10;77.60;;;;;;4935560;28;20807;-79
2023/08/22 08:29:44;;;;;;;23.10;22.00;;;39.30;74.00;;;;;;4940993;28;21022;-79
2023/08/22 08:32:10;;;;;;;22.57;21.47;;;39.40;72.90;;;;;;4948961;28;20824;-79
2023/08/22 08:51:30;;;;;;;22.47;21.33;;;40.00;68.50;;;;;;4943405;28;20541;-79
2023/08/22 08:53:57;;;;;;;22.77;21.63;;;40.80;65.90;;;;;;4948059;28;20964;-79
2023/08/22 08:56:24;;;;;;;22.97;21.77;;;40.40;67.00;;;;;;4933068;29;20452;-79
2023/08/22 08:58:50;;;;;;;23.37;21.70;;;40.50;65.80;;;;;;4932810;29;20812;-78
2023/08/22 09:01:18;;;;;;;22.03;20.90;;;41.20;63.50;;;;;;4933222;29;20512;-79
2023/08/22 09:03:45;;;;;;;22.07;21.13;;;41.00;63.50;;;;;;4938322;28;20452;-78
2023/08/22 09:06:12;;;;;;;22.80;21.70;;;40.90;64.10;;;;;;4950531;28;20456;-78
2023/08/22 09:08:40;;;;;;;23.20;22.10;;;41.20;62.20;;;;;;4944012;28;20464;-77
2023/08/22 09:11:06;;;;;;;22.37;21.10;;;41.50;62.80;;;;;;4946327;28;20962;-78
2023/08/22 09:13:35;;;;;;;20.93;19.80;;;41.60;62.00;;;;;;4941196;28;20457;-77
2023/08/22 09:16:03;;;;;;;23.30;21.93;;;41.70;60.40;;;;;;4941175;28;20863;-79
2023/08/22 09:18:29;;;;;;;22.53;21.23;;;41.60;59.70;;;;;;4941479;29;20452;-77
2023/08/22 09:21:03;;;;;;;21.40;20.40;;;41.30;61.10;;;;;;4946958;28;20982;-78
2023/08/22 09:23:31;;;;;;;21.67;20.57;;;41.40;60.20;;;;;;4935901;28;20460;-77
2023/08/22 09:26:01;;;;;;;22.07;20.97;;;41.60;59.90;;;;;;4935422;29;20855;-79
2023/08/22 09:28:28;;;;;;;21.10;20.10;;;41.40;60.30;;;;;;4945491;28;20856;-77
2023/08/22 09:30:55;;;;;;;22.10;21.10;;;41.20;59.80;;;;;;4937407;29;20489;-77
2023/08/22 09:33:22;;;;;;;21.40;20.30;;;41.50;60.20;;;;;;4954715;28;20856;-78
2023/08/22 09:35:54;;;;;;;21.97;20.43;;;42.00;58.40;;;;;;4952415;28;20440;-77
2023/08/22 09:38:21;;;;;;;23.00;21.60;;;42.50;58.30;;;;;;4935487;29;20197;-77
2023/08/22 09:40:52;;;;;;;21.67;20.63;;;42.50;57.60;;;;;;4936055;29;20291;-76
2023/08/22 09:43:23;;;;;;;20.40;19.60;;;42.20;58.00;;;;;;4945201;29;20888;-77
2023/08/22 09:45:51;;;;;;;22.60;21.40;;;42.20;58.00;;;;;;4943560;29;20460;-77
2023/08/22 09:48:24;;;;;;;21.07;20.27;;;41.70;57.90;;;;;;4949001;28;21126;-77
2023/08/22 09:50:56;;;;;;;22.20;21.20;;;41.30;58.50;;;;;;4937591;28;21022;-79
2023/08/22 09:53:24;;;;;;;20.93;20.03;;;42.30;57.20;;;;;;4916247;29;20509;-78
2023/08/22 09:55:54;;;;;;;21.20;20.27;;;42.10;57.10;;;;;;4930928;29;20462;-78
2023/08/22 09:58:23;;;;;;;21.50;20.60;;;41.50;58.10;;;;;;4943762;28;20460;-78
2023/08/22 10:00:52;;;;;;;21.73;20.63;;;41.30;58.00;;;;;;4952033;28;20448;-77
2023/08/22 10:03:19;;;;;;;21.67;20.47;;;41.30;57.60;;;;;;4936292;29;21031;-79
2023/08/22 10:05:47;;;;;;;22.93;21.83;;;41.50;57.60;;;;;;4942345;28;21038;-77
2023/08/22 10:08:13;;;;;;;22.13;20.97;;;41.70;57.30;;;;;;4946936;28;20459;-79
2023/08/22 10:10:42;;;;;;;21.70;20.60;;;42.00;56.60;;;;;;4954043;28;20901;-77
2023/08/22 10:13:10;;;;;;;20.57;19.77;;;40.90;57.80;;;;;;4916004;29;20453;-78
2023/08/22 10:15:40;;;;;;;20.80;19.90;;;41.30;58.20;;;;;;4915601;29;20449;-78
2023/08/22 10:18:07;;;;;;;21.03;20.03;;;41.40;57.50;;;;;;4937985;29;20456;-76
2023/08/22 10:20:35;;;;;;;20.33;19.43;;;41.80;57.10;;;;;;4934742;28;20476;-78
2023/08/22 10:23:02;;;;;;;21.67;20.40;;;41.40;56.80;;;;;;4953236;28;20456;-79
2023/08/22 10:25:47;;;;;;;21.83;20.90;;;41.50;56.70;;;;;;4946562;28;20468;-78
2023/08/22 10:28:14;;;;;;;20.83;19.60;;;41.50;57.20;;;;;;4934056;29;20551;-77
2023/08/22 10:31:03;;;;;;;21.30;20.10;;;41.80;56.80;;;;;;4934450;29;20492;-78
2023/08/22 10:33:30;;;;;;;21.23;20.27;;;42.40;55.40;;;;;;4935596;29;20461;-78
2023/08/22 10:36:07;;;;;;;23.73;22.33;;;42.60;55.00;;;;;;4941510;28;20459;-77
2023/08/22 10:38:54;;;;;;;21.27;20.17;;;42.30;55.00;;;;;;4945247;28;20223;-78
2023/08/22 10:41:24;;;;;;;21.83;20.83;;;43.20;53.90;;;;;;4938802;29;20639;-78
2023/08/22 10:43:54;;;;;;;22.73;21.73;;;43.30;53.10;;;;;;4935610;29;20206;-78
2023/08/22 10:46:58;;;;;;;22.53;21.50;;;42.90;53.70;;;;;;4946175;28;20212;-77
2023/08/22 10:49:29;;;;;;;22.83;21.60;;;41.70;55.00;;;;;;4943161;28;20225;-77
2023/08/22 10:52:01;;;;;;;20.70;19.80;;;41.70;55.10;;;;;;4929231;29;21006;-79
2023/08/22 10:54:30;;;;;;;23.40;22.23;;;42.70;54.00;;;;;;4945620;28;20259;-78
2023/08/22 10:57:17;;;;;;;22.57;21.57;;;42.70;53.30;;;;;;4931675;29;20208;-79
2023/08/22 11:00:06;;;;;;;21.23;20.20;;;43.30;53.40;;;;;;4934805;28;20568;-78
2023/08/22 11:02:36;;;;;;;23.10;21.80;;;43.50;52.40;;;;;;4914824;29;20214;-79
2023/08/22 11:05:07;;;;;;;21.53;20.53;;;43.10;53.70;;;;;;4923395;29;20217;-78
2023/08/22 11:07:35;;;;;;;22.87;21.80;;;42.40;53.40;;;;;;4943686;28;20551;-78
2023/08/22 11:10:03;;;;;;;21.63;20.73;;;41.20;54.90;;;;;;4941250;28;20491;-79
2023/08/22 11:12:30;;;;;;;20.63;19.63;;;39.70;56.20;;;;;;4952710;28;20456;-78
2023/08/22 11:14:58;;;;;;;21.73;20.53;;;38.80;56.20;;;;;;4945348;28;20460;-77
2023/08/22 11:17:25;;;;;;;19.07;18.13;;;38.70;57.40;;;;;;4933750;29;20508;-77
2023/08/22 11:19:57;;;;;;;21.13;20.13;;;38.60;57.30;;;;;;4938847;28;20516;-78
2023/08/22 11:22:24;;;;;;;20.57;19.77;;;38.40;58.40;;;;;;4952971;28;20515;-77
2023/08/22 11:24:52;;;;;;;21.50;20.50;;;38.80;58.40;;;;;;4945755;28;20448;-77
2023/08/22 11:27:19;;;;;;;22.27;21.17;;;39.20;56.90;;;;;;4940993;28;20487;-77
2023/08/22 11:29:47;;;;;;;21.67;20.67;;;40.70;55.20;;;;;;4941892;28;20495;-78
2023/08/22 11:32:21;;;;;;;20.87;20.07;;;41.80;53.20;;;;;;4942110;28;20556;-79
2023/08/22 11:34:49;;;;;;;21.93;21.03;;;42.00;52.20;;;;;;4938234;29;20926;-78
2023/08/22 11:37:18;;;;;;;21.13;19.93;;;41.70;53.10;;;;;;4952812;28;20484;-76
2023/08/22 11:39:48;;;;;;;20.43;19.40;;;40.50;54.30;;;;;;4945943;28;20511;-79
2023/08/22 11:42:16;;;;;;;20.37;19.53;;;39.90;55.30;;;;;;4934309;28;20464;-77
2023/08/22 11:44:53;;;;;;;21.50;20.13;;;39.70;55.80;;;;;;4939855;29;20836;-77
2023/08/22 11:47:20;;;;;;;20.80;19.60;;;39.90;55.60;;;;;;4933184;28;20448;-79
2023/08/22 11:49:49;;;;;;;21.23;20.00;;;40.40;55.90;;;;;;4946050;28;20649;-78
2023/08/22 11:52:17;;;;;;;20.83;19.87;;;40.50;54.30;;;;;;4942108;28;20467;-79
2023/08/22 11:54:45;;;;;;;20.20;19.40;;;39.90;54.80;;;;;;4935527;28;20516;-77
2023/08/22 11:57:12;;;;;;;20.80;19.57;;;39.30;55.40;;;;;;4942352;28;20448;-77
2023/08/22 11:59:41;;;;;;;20.27;19.20;;;39.40;56.30;;;;;;4938471;28;20934;-77
2023/08/22 12:02:12;;;;;;;20.37;19.20;;;40.00;54.80;;;;;;4942445;28;20460;-78
2023/08/22 12:04:42;;;;;;;22.40;20.97;;;40.60;54.30;;;;;;4944798;28;20978;-78
2023/08/22 12:07:09;;;;;;;21.63;20.53;;;41.00;54.20;;;;;;4933510;28;20453;-76
2023/08/22 12:09:37;;;;;;;20.83;19.90;;;41.00;53.20;;;;;;4943529;28;20951;-76
2023/08/22 12:12:11;;;;;;;19.53;18.73;;;41.00;53.10;;;;;;4948572;28;20452;-77
2023/08/22 12:14:38;;;;;;;20.10;19.03;;;41.60;52.40;;;;;;4937405;28;20875;-78
2023/08/22 12:17:05;;;;;;;20.93;19.93;;;42.20;51.50;;;;;;4932745;29;20460;-78
2023/08/22 12:19:32;;;;;;;19.90;19.03;;;42.70;51.30;;;;;;4949330;28;20208;-77
2023/08/22 12:21:59;;;;;;;19.03;18.13;;;42.40;51.10;;;;;;4951674;28;20232;-76
2023/08/22 12:24:26;;;;;;;19.30;18.60;;;42.40;50.70;;;;;;4952395;28;20215;-77
2023/08/22 12:26:54;;;;;;;20.20;19.40;;;42.40;50.70;;;;;;4950016;28;20292;-76
2023/08/22 12:29:21;;;;;;;19.70;18.93;;;41.80;51.00;;;;;;4932493;29;20453;-77
2023/08/22 12:31:48;;;;;;;20.50;19.70;;;42.00;50.90;;;;;;4932262;29;20515;-76
2023/08/22 12:34:14;;;;;;;19.37;18.57;;;40.60;51.90;;;;;;4932468;29;20448;-76
2023/08/22 12:36:41;;;;;;;20.60;19.60;;;40.30;52.90;;;;;;4934009;29;20464;-76
2023/08/22 12:39:10;;;;;;;19.33;18.53;;;40.00;53.80;;;;;;4946876;28;20471;-76
2023/08/22 12:41:37;;;;;;;20.47;19.50;;;39.50;54.50;;;;;;4941854;28;20457;-76
2023/08/22 12:44:05;;;;;;;19.90;19.00;;;40.00;55.00;;;;;;4936053;29;20440;-76
2023/08/22 12:46:32;;;;;;;20.07;19.17;;;39.90;54.40;;;;;;4948582;28;20456;-76
2023/08/22 12:48:59;;;;;;;19.83;18.90;;;38.80;55.70;;;;;;4955077;28;20805;-76
2023/08/22 12:51:26;;;;;;;19.57;18.67;;;38.10;56.90;;;;;;4955207;28;20506;-76
2023/08/22 12:53:52;;;;;;;19.50;18.60;;;38.20;57.90;;;;;;4955052;28;20457;-76
2023/08/22 12:56:19;;;;;;;19.10;18.30;;;39.30;56.40;;;;;;4947972;28;21009;-76
2023/08/22 12:58:46;;;;;;;20.80;19.57;;;40.20;54.70;;;;;;4935865;29;20460;-76
2023/08/22 13:01:14;;;;;;;19.70;18.67;;;40.30;55.00;;;;;;4935881;29;20467;-76
2023/08/22 13:03:41;;;;;;;20.13;19.33;;;40.70;53.80;;;;;;4935959;29;20520;-76
2023/08/22 13:06:07;;;;;;;21.23;20.33;;;41.00;52.80;;;;;;4935624;29;20452;-76
2023/08/22 13:08:34;;;;;;;20.13;19.33;;;41.30;52.50;;;;;;4935473;29;20539;-76
2023/08/22 13:11:01;;;;;;;20.20;19.20;;;41.40;52.30;;;;;;4935518;29;20499;-77
2023/08/22 13:13:28;;;;;;;19.47;18.57;;;40.80;53.50;;;;;;4935509;29;20480;-76
2023/08/22 13:15:55;;;;;;;19.17;18.27;;;40.90;53.80;;;;;;4935718;29;20456;-75
2023/08/22 13:18:23;;;;;;;18.73;17.83;;;41.00;53.60;;;;;;4935539;29;20496;-77
2023/08/22 13:20:50;;;;;;;19.70;19.00;;;41.60;53.00;;;;;;4939108;29;21013;-76
2023/08/22 13:23:16;;;;;;;19.57;18.47;;;42.30;52.10;;;;;;4949201;29;20471;-77
2023/08/22 13:25:43;;;;;;;20.47;19.40;;;42.10;52.20;;;;;;4945286;28;20459;-76
2023/08/22 13:28:10;;;;;;;21.10;20.00;;;42.30;51.80;;;;;;4944834;28;20476;-76
2023/08/22 13:30:36;;;;;;;19.70;18.80;;;42.20;51.40;;;;;;4935106;29;20492;-76